• Join FlightAware (Why Join?)
  • Login
  • US Flag 
10:48AM EDT


 

Airport Tracker/Info


-or-


 

Live Flight TrackerFlight Track Log ✈ AWE1940 ✈ 29-Apr-2013 ✈ KRSW - KCLT

Flight Track Log - Related Links

Times and Time Zones

All times are in EDT time to prevent confusion due to time zone crossing. See the AWE1940 flight status page for this flight to view local times or setup timezone preferences in your user account.

Time Position Orientation Groundspeed Altitude Reporting Facility
EDT Latitude Longitude Course Direction KTS MPH feet Rate Location/Type
10:38PM 26.6097 -81.7031 North 231 266 3,300  Level Miami Center
10:39PM 26.6658 -81.7125 351° North 238 274 6,500 2,820 Climbing Miami Center
10:40PM 26.7303 -81.7175 356° North 232 267 9,100 2,040 Climbing Miami Center
10:41PM 26.8136 -81.7233 356° North 261 300 10,600 2,160 Climbing Miami Center
10:42PM 26.9094 -81.7294 357° North 307 353 13,500 2,580 Climbing Miami Center
10:43PM 27.1488 -81.7027 North  Level Estimated
10:43PM 27.0086 -81.7011 14° North 357 411 15,900  Level Miami Center
10:44PM 27.1114 -81.6819 North 357 411 17,900 2,160 Climbing Miami Center
10:45PM 27.2189 -81.6539 13° North 380 437 20,200 2,220 Climbing Miami Center
10:46PM 27.3303 -81.6281 12° North 398 458 22,400 1,800 Climbing Miami Center
10:47PM 27.4333 -81.6042 12° North 405 466 23,800 1,680 Climbing Miami Center
10:48PM 27.5639 -81.5722 12° North 420 483 25,800 2,160 Climbing Miami Center
10:49PM 27.6794 -81.5442 12° North 420 483 28,200 1,440 Climbing Miami Center
10:50PM 27.7972 -81.5208 10° North 420 483 28,700 420 Climbing Miami Center
10:51PM 27.9178 -81.5328 355° North 425 489 29,100 1,380 Climbing Miami Center
10:52PM 28.0342 -81.5517 352° North 431 496 31,500 1,440 Climbing Miami Center
10:53PM 28.1544 -81.5683 353° North 425 489 32,000 660 Climbing Miami Center
10:54PM 28.2622 -81.5869 351° North 431 496 32,900 480 Climbing Jacksonville Center
10:55PM 28.3833 -81.6044 353° North 431 496 33,000  Climbing Jacksonville Center
10:56PM 28.5150 -81.6264 352° North 439 505 33,000  Level Jacksonville Center
10:57PM 28.6383 -81.6436 353° North 439 505 33,000  Level Jacksonville Center
10:58PM 28.7597 -81.6633 352° North 439 505 33,000  Level Jacksonville Center
10:59PM 28.8831 -81.6833 352° North 445 512 33,000 180 Level Jacksonville Center
11:00PM 29.0064 -81.7031 352° North 445 512 33,400 1,260 Climbing Jacksonville Center
11:01PM 29.1233 -81.7208 352° North 439 505 35,600 1,320 Climbing Jacksonville Center
11:02PM 29.2383 -81.7408 351° North 423 487 36,100 660 Climbing Jacksonville Center
11:03PM 29.3575 -81.7583 353° North 423 487 37,000 420 Climbing Jacksonville Center
11:04PM 29.4747 -81.7786 351° North 423 487 37,000  Level Jacksonville Center
11:05PM 29.5917 -81.7964 352° North 428 493 37,000  Level Jacksonville Center
11:06PM 29.7108 -81.8142 353° North 428 493 37,000  Level Jacksonville Center
11:07PM 29.8319 -81.8342 352° North 428 493 37,000  Level Jacksonville Center
11:08PM 29.9511 -81.8522 353° North 428 493 37,000  Level Jacksonville Center
11:09PM 30.0725 -81.8653 355° North 428 493 37,000  Level Jacksonville Center
11:10PM 30.1917 -81.8833 353° North 428 493 37,000  Level Jacksonville Center
11:11PM 30.3189 -81.8747 North 434 499 37,000  Level Jacksonville Center
11:12PM 30.4439 -81.8564 North 439 505 37,000  Level Jacksonville Center
11:13PM 30.5589 -81.8650 356° North 443 510 37,000  Level Jacksonville Center
11:14PM 30.6800 -81.8806 354° North 443 510 37,000  Level Jacksonville Center
11:15PM 30.8011 -81.8889 357° North 443 510 37,000  Level Jacksonville Center
11:16PM 30.9244 -81.9022 355° North 443 510 37,000  Level Jacksonville Center
11:17PM 31.0500 -81.9178 354° North 443 510 37,000  Level Jacksonville Center
11:18PM 31.1731 -81.9261 357° North 443 510 37,000  Level Jacksonville Center
11:19PM 31.2964 -81.9369 356° North 443 510 37,000  Level Jacksonville Center
11:20PM 31.4197 -81.9456 357° North 437 503 37,000  Level Jacksonville Center
11:21PM 31.5575 -81.9589 355° North 443 510 37,000  Level Jacksonville Center
11:22PM 31.6808 -81.9697 356° North 443 510 37,000  Level Jacksonville Center
11:24PM 31.9906 -82.0014 355° North 443 510 37,000  Level Atlanta Center
11:25PM 32.1161 -82.0108 356° North 443 510 37,000  Level Atlanta Center
11:26PM 32.2414 -82.0253 354° North 450 518 37,000  Level Atlanta Center
11:27PM 32.3647 -82.0322 357° North 445 512 37,000  Level Atlanta Center
11:28PM 32.4881 -82.0442 355° North 445 512 37,000 -420 Level Atlanta Center
11:29PM 32.6156 -82.0586 355° North 445 512 36,200 -1,080 Descending Atlanta Center
11:30PM 32.7453 -82.0706 356° North 450 518 34,900 -1,380 Descending Atlanta Center
11:31PM 32.8789 -82.0797 357° North 460 529 33,500 -1,260 Descending Atlanta Center
11:32PM 33.0086 -82.0942 355° North 472 543 32,400 -1,200 Descending Atlanta Center
11:33PM 33.1444 -82.1086 355° North 477 549 31,200 -1,200 Descending Atlanta Center
11:34PM 33.2825 -82.1231 355° North 484 557 30,000 -1,200 Descending Atlanta Center
11:35PM 33.4183 -82.1350 356° North 484 557 28,900 -1,200 Descending Atlanta Center
11:36PM 33.5542 -82.1469 356° North 484 557 27,700 -1,200 Descending Atlanta Center
11:37PM 33.6881 -82.1589 356° North 484 557 26,600 -1,200 Descending Atlanta Center
11:38PM 33.8089 -82.1464 North 479 551 25,400 -1,200 Descending Atlanta Center
11:39PM 33.9203 -82.0611 32° Northeast 455 524 24,300 -720 Descending Atlanta Center
11:40PM 34.0253 -81.9708 35° Northeast 455 524 24,000 -180 Descending Atlanta Center
11:41PM 34.1344 -81.8831 34° Northeast 455 524 24,000  Level Atlanta Center
11:42PM 34.2369 -81.7950 35° Northeast 455 524 24,000  Level Atlanta Center
11:43PM 34.3419 -81.7042 36° Northeast 455 524 24,000 -480 Level Atlanta Center
11:44PM 34.4200 -81.6414 34° Northeast 455 524 23,300 -1,200 Descending Atlanta Center
11:44PM 34.4506 -81.6131 37° Northeast 455 524 22,900 -1,980 Descending Atlanta Center
11:45PM 34.5450 -81.5319 35° Northeast 450 518 20,600 -2,700 Descending Atlanta Center
11:46PM 34.6536 -81.4406 35° Northeast 435 501 17,400 -3,120 Descending Atlanta Center
11:47PM 34.7458 -81.3592 36° Northeast 423 487 14,400 -3,000 Descending Atlanta Center
11:48PM 34.8294 -81.2731 40° Northeast 403 464 11,400 -2,220 Descending Atlanta Center
11:49PM 34.9089 -81.1817 43° Northeast 368 423 10,000 -720 Descending Atlanta Center
11:50PM 34.9617 -81.1167 45° Northeast 339 390 10,000 -840 Level Atlanta Center
11:51PM 35.0142 -81.0436 49° Northeast 294 338 8,400 -2,100 Descending Atlanta Center
11:52PM 35.0644 -80.9733 49° Northeast 283 326 5,800 -1,800 Descending Atlanta Center
11:53PM 35.1169 -80.9028 48° Northeast 273 314 4,900 -1,200 Descending Atlanta Center
11:55PM 35.1753 -80.8219 49° Northeast 234 269 3,300 -900 Descending Atlanta Center
11:56PM 35.2197 -80.7642 47° Northeast 234 269 3,000 -180 Descending Atlanta Center
11:57PM 35.2758 -80.7569 North 238 274 3,000 -60 Level Atlanta Center
11:57PM 35.2817 -80.8153 277° West 193 222 2,900 -480 Descending Atlanta Center
11:59PM 35.2622 -80.8744 248° West 177 204 2,100 -840 Descending Atlanta Center
12:00AM 35.2383 -80.9136 233° Southwest 134 154 1,300 -840 Descending Atlanta Center
12:02AM 35.2137 -80.9491 356° North  Level Estimated